GNB weather

Public forecast

Using degrees Celsius for public forecast. Weather courtesy of forecast.io.

Current aviation weather report (METAR) for Grenoble-Isère Airport

Retrieved 2020/08/15 16:00 UTC (5 minutes ago):

LFLS 151600Z AUTO 33006KT 290V010 CAVOK 31/09 Q1012 NOSIG

Aviation forecast (TAF) for Grenoble-Isère Airport

Retrieved 2020/08/15 15:42 UTC (23 minutes ago):

TAF LFLS 151400Z 1515/1615 VRB04KT CAVOK TEMPO 1600/1608 09005KT TEMPO 1613/1615 VRB12KT FEW050CB SCT060 PROB30 TEMPO 1614/1615 VRB15G35KT 3000 TSRA SCT040CB BKN060TCU